createdAt,value
2023-11-18T15:20:44.716Z,0.90
2023-11-18T15:21:08.520Z,1.38
2023-11-18T15:22:02.733Z,1.90
2023-11-18T15:22:24.342Z,1.65
2023-11-18T15:22:46.600Z,2.22
2023-11-18T15:23:08.457Z,3.38
2023-11-18T15:23:30.192Z,1.77
2023-11-18T15:23:52.830Z,1.50
2023-11-18T15:24:15.225Z,2.00
2023-11-18T15:24:36.858Z,2.47
2023-11-18T15:25:00.764Z,2.22
2023-11-18T15:25:22.906Z,1.98
2023-11-18T15:25:46.113Z,2.90
2023-11-18T15:27:12.980Z,0.90
2023-11-18T15:27:34.628Z,0.60
2023-11-18T15:27:57.206Z,0.63
2023-11-18T15:28:19.784Z,0.70
2023-11-18T15:28:41.977Z,0.60
2023-11-18T15:29:10.816Z,0.43
2023-11-18T15:29:38.656Z,0.60
2023-11-18T15:30:03.221Z,0.40
2023-11-18T15:30:26.462Z,0.70
2023-11-18T15:30:48.174Z,0.70
2023-11-18T15:31:10.953Z,0.50
2023-11-18T15:31:32.598Z,0.75
2023-11-18T15:31:55.967Z,0.80
2023-11-18T15:32:18.251Z,0.80
2023-11-18T15:32:40.622Z,0.95
2023-11-18T15:33:03.486Z,0.93
2023-11-18T15:33:25.751Z,0.50
2023-11-18T15:33:47.384Z,0.52
2023-11-18T15:34:09.479Z,0.80
2023-11-18T15:34:32.827Z,0.65
2023-11-18T15:34:54.530Z,0.77
2023-11-18T15:35:17.797Z,0.52
2023-11-18T15:35:39.800Z,0.80
2023-11-18T15:36:02.239Z,0.75
2023-11-18T15:36:23.937Z,0.93
2023-11-18T15:36:45.785Z,0.68
2023-11-18T15:37:07.402Z,0.70
2023-11-18T15:37:30.192Z,0.60
2023-11-18T15:37:52.046Z,1.05
2023-11-18T15:38:18.186Z,1.33
2023-11-18T15:38:40.630Z,0.65
2023-11-18T15:39:04.446Z,0.60
2023-11-18T15:39:27.067Z,1.00
2023-11-18T15:39:48.746Z,0.82
2023-11-18T15:40:11.865Z,0.80
2023-11-18T15:40:33.601Z,0.70
2023-11-18T15:40:55.491Z,0.88
2023-11-18T15:41:17.586Z,0.50
2023-11-18T15:41:39.228Z,0.70
2023-11-18T15:42:00.892Z,0.85
2023-11-18T15:42:24.830Z,0.90
2023-11-18T15:42:49.624Z,0.80
2023-11-18T15:43:13.030Z,0.70
2023-11-18T15:43:35.089Z,0.73
2023-11-18T15:43:56.796Z,0.80
2023-11-18T15:44:20.913Z,0.80
2023-11-18T15:44:43.331Z,0.70
2023-11-18T15:45:09.413Z,0.50
2023-11-18T15:45:31.010Z,0.60
2023-11-18T15:45:52.686Z,0.70
2023-11-18T15:46:15.419Z,0.85
2023-11-18T15:46:38.916Z,0.60
2023-11-18T15:47:00.670Z,0.98
2023-11-18T15:47:22.523Z,0.80
2023-11-18T15:47:44.999Z,0.50
2023-11-18T15:48:08.452Z,0.60
2023-11-18T15:48:32.279Z,0.60
2023-11-18T15:48:53.940Z,0.75
2023-11-18T15:49:15.541Z,0.98
2023-11-18T15:49:37.149Z,0.77
2023-11-18T15:49:59.007Z,0.70
2023-11-18T15:50:22.046Z,0.65
2023-11-18T15:50:43.898Z,0.75
2023-11-18T15:51:06.081Z,0.70
2023-11-18T15:51:28.691Z,0.70
2023-11-18T15:51:50.285Z,0.73
2023-11-18T15:52:13.438Z,0.73
2023-11-18T15:52:37.404Z,0.90
2023-11-18T15:52:59.359Z,0.73
2023-11-18T15:53:21.135Z,0.80
2023-11-18T15:53:42.855Z,0.77
2023-11-18T15:54:05.913Z,0.77
2023-11-18T15:54:28.408Z,0.98
2023-11-18T15:54:50.055Z,0.80
2023-11-18T15:55:14.696Z,1.00
2023-11-18T15:55:37.902Z,0.85
2023-11-18T15:55:59.645Z,0.70
2023-11-18T15:56:21.515Z,0.70
2023-11-18T15:56:43.491Z,0.90
2023-11-18T15:57:05.804Z,0.80
2023-11-18T15:57:29.953Z,0.80
2023-11-18T15:57:54.713Z,0.88
2023-11-18T15:58:19.704Z,0.70
2023-11-18T15:58:41.321Z,0.73
2023-11-18T15:59:03.377Z,0.60
2023-11-18T15:59:27.262Z,0.60
2023-11-18T15:59:49.884Z,1.05
2023-11-18T16:00:16.763Z,0.85
2023-11-18T16:00:38.842Z,0.77
2023-11-18T16:01:00.832Z,0.60
2023-11-18T16:01:49.025Z,0.80
2023-11-18T16:02:10.705Z,1.20
2023-11-18T16:04:59.464Z,0.80
2023-11-18T16:12:47.438Z,0.70
2023-11-18T16:13:09.162Z,1.05
2023-11-18T16:13:30.884Z,0.85
2023-11-18T16:13:53.513Z,0.60
2023-11-18T16:19:06.957Z,1.00
2023-11-18T16:19:29.345Z,0.70
2023-11-18T16:19:51.004Z,0.70
2023-11-18T16:20:18.483Z,0.90
2023-11-18T16:20:41.054Z,0.80
2023-11-18T16:21:04.593Z,0.70
2023-11-18T16:22:27.010Z,0.80
2023-11-18T16:24:26.388Z,0.70
2023-11-18T16:25:12.819Z,0.73
2023-11-18T16:25:35.971Z,0.60
2023-11-18T16:27:17.013Z,0.65
2023-11-18T16:27:39.587Z,0.70
2023-11-18T16:28:03.672Z,0.70
2023-11-18T16:28:26.079Z,0.65
2023-11-18T16:28:47.683Z,0.70
2023-11-18T16:29:09.411Z,0.50
2023-11-18T16:29:32.230Z,0.70
2023-11-18T16:29:53.885Z,0.68
2023-11-18T16:30:16.393Z,0.77
2023-11-18T16:30:38.642Z,0.80
2023-11-18T16:31:01.716Z,0.70
2023-11-18T16:31:24.602Z,0.77
2023-11-18T16:32:14.134Z,0.93
2023-11-18T16:32:48.188Z,0.90
2023-11-18T16:33:12.458Z,0.50
2023-11-18T16:40:21.879Z,0.60
2023-11-18T16:40:43.770Z,0.73
2023-11-18T16:41:05.596Z,0.80
2023-11-18T16:41:38.488Z,0.60
2023-11-18T16:42:08.007Z,0.60
2023-11-18T16:42:29.793Z,0.70
2023-11-18T16:42:52.961Z,0.80
2023-11-18T16:43:15.972Z,1.15
2023-11-18T16:43:37.620Z,0.80
2023-11-18T16:44:56.933Z,0.50
2023-11-18T16:45:21.983Z,0.80
2023-11-18T16:47:57.456Z,0.65
2023-11-18T16:54:29.815Z,0.70
2023-11-18T16:55:16.081Z,1.10
2023-11-18T16:55:46.436Z,0.77
2023-11-18T16:56:09.622Z,0.73
2023-11-18T16:56:31.800Z,0.70
2023-11-18T16:56:53.831Z,0.80
2023-11-18T16:57:15.446Z,0.75
2023-11-18T16:57:38.793Z,0.70
2023-11-18T16:58:00.482Z,0.60
2023-11-18T16:58:23.561Z,0.75
2023-11-18T16:58:45.323Z,0.88
2023-11-18T16:59:07.116Z,0.90
2023-11-18T16:59:32.201Z,0.75
2023-11-18T16:59:56.610Z,0.60
2023-11-18T17:00:23.970Z,0.63
2023-11-18T17:00:47.714Z,0.90
2023-11-18T17:01:10.397Z,0.98
2023-11-18T17:01:32.168Z,0.82
2023-11-18T17:01:54.242Z,0.85
2023-11-18T17:02:16.247Z,0.70
2023-11-18T17:02:38.030Z,0.50
2023-11-18T17:03:01.259Z,0.60
2023-11-18T17:03:23.125Z,0.60
2023-11-18T17:03:45.054Z,0.70
2023-11-18T17:04:08.373Z,0.60
2023-11-18T17:04:30.168Z,0.90
2023-11-18T17:04:53.907Z,0.80
2023-11-18T17:05:17.386Z,0.75
2023-11-18T17:05:39.313Z,1.00
2023-11-18T17:06:02.920Z,0.73
2023-11-18T17:07:02.200Z,0.75
2023-11-18T17:07:28.223Z,0.70
2023-11-18T17:07:50.441Z,0.80
2023-11-18T17:08:15.238Z,0.75
2023-11-18T17:08:37.196Z,0.70
2023-11-18T17:09:36.330Z,0.80
2023-11-18T17:10:02.219Z,1.10
2023-11-18T17:11:35.175Z,0.50
2023-11-18T17:12:22.311Z,0.70
2023-11-18T17:14:16.046Z,0.75
2023-11-18T17:15:40.687Z,0.63
2023-11-18T17:16:02.605Z,0.80
2023-11-18T17:16:28.046Z,0.65
2023-11-18T17:16:49.692Z,0.82
2023-11-18T17:17:12.092Z,0.60
2023-11-18T17:17:33.810Z,0.80
2023-11-18T17:18:01.978Z,0.65
2023-11-18T17:18:24.583Z,0.57
2023-11-18T17:18:46.254Z,0.60
2023-11-18T17:19:07.869Z,0.70
2023-11-18T17:19:29.520Z,0.70
2023-11-18T17:19:51.890Z,0.80
2023-11-18T17:20:16.473Z,0.70
2023-11-18T17:20:38.273Z,0.70
2023-11-18T17:20:59.875Z,0.90
2023-11-18T17:21:21.555Z,0.75
2023-11-18T17:21:43.158Z,0.68
2023-11-18T17:22:06.136Z,0.60
2023-11-18T17:22:27.844Z,0.65
2023-11-18T17:22:49.700Z,0.70
2023-11-18T17:23:12.542Z,0.65
2023-11-18T17:23:34.307Z,0.50
2023-11-18T17:23:57.011Z,0.50
2023-11-18T17:24:18.708Z,0.68
2023-11-18T17:24:40.735Z,0.60
2023-11-18T17:25:02.947Z,0.70
2023-11-18T17:25:24.934Z,1.00
2023-11-18T17:25:47.604Z,0.90
2023-11-18T17:26:09.431Z,1.10
2023-11-18T17:26:38.592Z,1.00
2023-11-18T17:27:02.212Z,0.90
2023-11-18T17:27:25.494Z,1.05
2023-11-18T17:27:48.725Z,0.90
2023-11-18T17:28:10.335Z,0.93
2023-11-18T17:28:32.336Z,0.70
2023-11-18T17:28:53.989Z,0.60
2023-11-18T17:29:15.717Z,0.70
2023-11-18T17:29:38.451Z,0.73
2023-11-18T17:30:01.049Z,0.68
2023-11-18T17:30:23.088Z,1.00
2023-11-18T17:30:46.194Z,0.70
2023-11-18T17:31:07.911Z,0.55
2023-11-18T17:31:30.624Z,0.90
2023-11-18T17:31:52.324Z,1.00
2023-11-18T17:32:13.967Z,0.90
2023-11-18T17:32:35.619Z,0.45
2023-11-18T17:32:58.025Z,0.65
2023-11-18T17:33:19.670Z,0.73
2023-11-18T17:33:42.270Z,0.70
2023-11-18T17:34:05.409Z,0.63
2023-11-18T17:34:29.242Z,1.00
2023-11-18T17:34:50.853Z,0.90
2023-11-18T17:35:15.102Z,0.70
2023-11-18T17:35:37.935Z,0.82
2023-11-18T17:35:59.648Z,0.90
2023-11-18T17:36:21.310Z,0.50
2023-11-18T17:36:44.844Z,0.73
2023-11-18T17:37:09.142Z,0.73
2023-11-18T17:37:30.755Z,0.50
2023-11-18T17:37:53.419Z,0.70
2023-11-18T17:38:15.051Z,0.60
2023-11-18T17:38:36.864Z,0.60
2023-11-18T17:38:58.567Z,0.80
2023-11-18T17:39:20.255Z,0.77
2023-11-18T17:39:42.045Z,0.80
2023-11-18T17:40:06.581Z,0.70
2023-11-18T17:40:28.357Z,0.50
2023-11-18T17:40:50.205Z,0.73
2023-11-18T17:41:11.858Z,1.03
2023-11-18T17:41:33.541Z,0.93
2023-11-18T17:41:55.160Z,0.98
2023-11-18T17:42:17.829Z,0.98
2023-11-18T17:42:39.639Z,0.90
2023-11-18T17:43:01.341Z,0.93
2023-11-18T17:43:23.918Z,1.05
2023-11-18T17:43:45.482Z,0.73
2023-11-18T17:44:08.130Z,0.90
2023-11-18T17:44:29.834Z,0.70
2023-11-18T17:44:51.540Z,0.60
2023-11-18T17:45:14.276Z,0.60
2023-11-18T17:45:36.218Z,0.80
2023-11-18T17:45:59.243Z,1.10
2023-11-18T17:46:21.928Z,0.90
2023-11-18T17:46:43.596Z,0.77
2023-11-18T17:47:07.096Z,0.95
2023-11-18T17:47:29.317Z,0.88
2023-11-18T17:47:51.098Z,0.80
2023-11-18T17:48:13.382Z,0.80
2023-11-18T17:48:37.195Z,0.75
2023-11-18T17:48:59.170Z,0.77
2023-11-18T17:49:23.325Z,0.80
2023-11-18T17:49:46.408Z,0.80
2023-11-18T17:50:10.286Z,0.80
2023-11-18T17:50:35.019Z,0.90
2023-11-18T17:50:59.635Z,0.70
2023-11-18T17:51:23.994Z,0.82
2023-11-18T17:51:46.170Z,0.85
2023-11-18T17:52:07.790Z,0.85
2023-11-18T17:52:30.003Z,0.70
2023-11-18T17:52:52.737Z,0.55
2023-11-18T17:53:14.408Z,0.80
2023-11-18T17:53:36.061Z,0.85
2023-11-18T17:53:57.715Z,0.80
2023-11-18T17:54:19.322Z,0.90
2023-11-18T17:54:43.550Z,0.98
2023-11-18T17:55:05.865Z,1.10
2023-11-18T17:55:28.897Z,0.75
2023-11-18T17:55:51.604Z,0.73
2023-11-18T17:56:15.495Z,0.80
2023-11-18T17:56:37.183Z,0.88
2023-11-18T17:57:01.048Z,0.70
2023-11-18T17:57:23.225Z,0.77
2023-11-18T17:57:45.331Z,0.80
2023-11-18T17:58:08.068Z,0.80
2023-11-18T17:58:30.607Z,0.70
2023-11-18T17:58:52.607Z,0.90
2023-11-18T17:59:14.264Z,0.63
2023-11-18T17:59:35.916Z,0.82
2023-11-18T17:59:58.610Z,0.80
2023-11-18T18:00:23.407Z,0.68
2023-11-18T18:00:46.709Z,0.85
2023-11-18T18:01:09.980Z,0.63
2023-11-18T18:01:31.700Z,0.90
2023-11-18T18:01:55.062Z,0.80
2023-11-18T18:02:17.197Z,0.80
2023-11-18T18:02:40.698Z,0.60
2023-11-18T18:03:02.475Z,0.63
2023-11-18T18:03:24.249Z,0.90
2023-11-18T18:03:46.104Z,1.13
2023-11-18T18:04:07.834Z,0.85
2023-11-18T18:05:15.664Z,0.75
2023-11-18T18:05:37.437Z,0.52
2023-11-18T18:06:00.694Z,0.50
2023-11-18T18:06:22.869Z,0.60
2023-11-18T18:06:48.576Z,0.60
2023-11-18T18:07:12.311Z,0.50
2023-11-18T18:07:34.065Z,0.80
2023-11-18T18:07:55.702Z,0.88
2023-11-18T18:08:17.377Z,0.80
2023-11-18T18:08:41.133Z,0.70
2023-11-18T18:09:02.772Z,0.70
2023-11-18T18:09:25.437Z,0.63
2023-11-18T18:09:47.290Z,0.85
2023-11-18T18:10:10.855Z,0.75
2023-11-18T18:10:33.730Z,0.50
2023-11-18T18:10:56.847Z,0.60
2023-11-18T18:11:18.984Z,0.77
2023-11-18T18:11:40.818Z,0.70
2023-11-18T18:12:02.535Z,0.70
2023-11-18T18:12:24.168Z,0.80
2023-11-18T18:12:48.475Z,1.15
2023-11-18T18:13:11.735Z,0.82
2023-11-18T18:13:33.672Z,0.63
2023-11-18T18:13:58.286Z,0.68
2023-11-18T18:14:19.964Z,0.90
2023-11-18T18:14:42.556Z,0.90
2023-11-18T18:15:05.777Z,0.60
2023-11-18T18:15:27.964Z,1.00
2023-11-18T18:15:49.849Z,0.75
2023-11-18T18:16:15.187Z,0.70
2023-11-18T18:16:36.919Z,0.63
2023-11-18T18:16:58.587Z,0.60
2023-11-18T18:17:20.965Z,0.60
2023-11-18T18:17:43.613Z,0.70
2023-11-18T18:18:06.569Z,0.80
2023-11-18T18:18:28.317Z,0.75
2023-11-18T18:18:50.005Z,1.02
2023-11-18T18:19:11.651Z,1.10
2023-11-18T18:19:33.294Z,1.15
2023-11-18T18:19:55.038Z,0.80
2023-11-18T18:20:21.007Z,0.65
2023-11-18T18:20:48.881Z,0.60
2023-11-18T18:21:10.603Z,0.50
2023-11-18T18:21:33.239Z,0.77
2023-11-18T18:21:54.918Z,0.80
2023-11-18T18:22:16.591Z,1.08
2023-11-18T18:22:39.959Z,0.80
2023-11-18T18:23:01.661Z,0.80
2023-11-18T18:23:23.373Z,1.10
2023-11-18T18:23:45.006Z,0.77
2023-11-18T18:24:07.020Z,0.70
2023-11-18T18:24:28.769Z,0.68
2023-11-18T18:24:51.525Z,0.80
2023-11-18T18:25:13.607Z,0.70
2023-11-18T18:25:35.408Z,0.68
2023-11-18T18:25:57.027Z,0.60
2023-11-18T18:26:18.685Z,0.80
2023-11-18T18:26:41.522Z,1.08
2023-11-18T18:27:03.585Z,0.70
2023-11-18T18:27:25.329Z,0.70
2023-11-18T18:27:51.678Z,1.00
2023-11-18T18:28:14.400Z,0.88
2023-11-18T18:28:36.063Z,0.80
2023-11-18T18:28:58.857Z,0.70
2023-11-18T18:29:20.733Z,0.55
2023-11-18T18:29:43.779Z,0.63
2023-11-18T18:30:06.817Z,0.73
2023-11-18T18:30:29.356Z,0.65
2023-11-18T18:30:51.094Z,0.65
2023-11-18T18:31:14.067Z,0.98
2023-11-18T18:31:35.751Z,0.70
2023-11-18T18:31:57.420Z,0.60
2023-11-18T18:32:19.190Z,0.90
2023-11-18T18:32:42.175Z,0.90
2023-11-18T18:33:04.129Z,0.80
2023-11-18T18:33:26.034Z,0.60
2023-11-18T18:33:48.458Z,0.60
2023-11-18T18:34:10.128Z,0.60
2023-11-18T18:34:32.714Z,0.70
2023-11-18T18:34:54.372Z,1.00
2023-11-18T18:35:17.564Z,0.95
2023-11-18T18:35:40.763Z,0.70
2023-11-18T18:36:02.535Z,0.70
2023-11-18T18:36:24.192Z,0.60
2023-11-18T18:36:46.804Z,0.70
2023-11-18T18:37:08.714Z,1.10
2023-11-18T18:37:30.531Z,0.93
2023-11-18T18:37:52.183Z,0.80
2023-11-18T18:38:15.083Z,0.70
2023-11-18T18:38:36.729Z,0.68
2023-11-18T18:38:58.334Z,0.88
2023-11-18T18:39:19.952Z,0.60
2023-11-18T18:39:41.541Z,0.60
2023-11-18T18:40:05.792Z,0.60
2023-11-18T18:40:29.172Z,0.80
2023-11-18T18:40:51.985Z,0.70
2023-11-18T18:41:14.944Z,0.60
2023-11-18T18:41:36.611Z,0.55
2023-11-18T18:42:00.700Z,0.60
2023-11-18T18:42:22.643Z,0.60
2023-11-18T18:42:44.341Z,0.50
2023-11-18T18:43:07.672Z,0.73
2023-11-18T18:43:30.270Z,0.77
2023-11-18T18:43:51.873Z,0.65
2023-11-18T18:44:13.675Z,0.60
2023-11-18T18:44:35.356Z,0.50
2023-11-18T18:44:57.946Z,0.80
2023-11-18T18:45:19.782Z,0.60
2023-11-18T18:45:42.446Z,0.68
2023-11-18T18:46:04.564Z,0.82
2023-11-18T18:46:28.299Z,0.77
2023-11-18T18:46:49.889Z,0.63
2023-11-18T18:47:11.659Z,0.57
2023-11-18T18:47:34.469Z,0.82
2023-11-18T18:47:56.681Z,0.73
2023-11-18T18:48:18.933Z,0.73
2023-11-18T18:48:40.623Z,0.68
2023-11-18T18:49:02.644Z,0.75
2023-11-18T18:49:24.234Z,0.70
2023-11-18T18:49:46.796Z,0.82
2023-11-18T18:50:09.787Z,0.80
2023-11-18T18:50:35.601Z,0.70
2023-11-18T18:50:58.025Z,0.70
2023-11-18T18:51:19.640Z,0.60
2023-11-18T18:51:42.204Z,0.63
2023-11-18T18:52:04.135Z,0.60
2023-11-18T18:52:25.845Z,0.65
2023-11-18T18:52:47.472Z,0.75
2023-11-18T18:53:09.235Z,0.73
2023-11-18T18:53:33.615Z,0.73
2023-11-18T18:53:55.264Z,0.85
2023-11-18T18:54:16.957Z,0.70
2023-11-18T18:54:38.799Z,0.80
2023-11-18T18:55:00.460Z,0.80
2023-11-18T18:55:22.085Z,0.70
2023-11-18T18:55:45.125Z,0.85
2023-11-18T18:56:07.797Z,0.90
2023-11-18T18:56:30.103Z,0.70
2023-11-18T18:56:51.796Z,0.95
2023-11-18T18:57:13.849Z,0.73
2023-11-18T18:57:36.572Z,0.70
2023-11-18T18:57:58.782Z,0.98
2023-11-18T18:58:20.535Z,0.80
2023-11-18T18:58:42.161Z,0.70
2023-11-18T18:59:05.071Z,0.60
2023-11-18T18:59:27.803Z,0.80
2023-11-18T18:59:49.464Z,0.70
2023-11-18T19:00:13.144Z,0.60
2023-11-18T19:00:35.121Z,0.90
2023-11-18T19:00:56.774Z,0.77
2023-11-18T19:01:19.400Z,0.60
2023-11-18T19:01:45.723Z,0.90
2023-11-18T19:02:09.088Z,0.70
2023-11-18T19:02:32.019Z,0.68
2023-11-18T19:02:53.849Z,0.50
2023-11-18T19:03:16.899Z,0.70
2023-11-18T19:03:38.766Z,0.65
2023-11-18T19:04:00.541Z,0.90
2023-11-18T19:04:22.558Z,0.70
2023-11-18T19:04:44.320Z,0.90
2023-11-18T19:05:06.612Z,0.77
2023-11-18T19:05:29.622Z,0.82
2023-11-18T19:05:51.298Z,0.90
2023-11-18T19:06:12.976Z,0.73
2023-11-18T19:06:34.648Z,0.68
2023-11-18T19:06:56.322Z,0.90
2023-11-18T19:07:19.401Z,0.70
2023-11-18T19:07:42.469Z,0.80
2023-11-18T19:08:04.589Z,0.60
2023-11-18T19:08:27.257Z,0.80
2023-11-18T19:08:48.924Z,0.52
2023-11-18T19:09:10.583Z,0.55
2023-11-18T19:09:32.235Z,1.00
2023-11-18T19:09:54.836Z,0.90
2023-11-18T19:10:19.950Z,0.60
2023-11-18T19:10:41.848Z,0.98
2023-11-18T19:11:04.558Z,0.77
2023-11-18T19:11:26.708Z,0.55
2023-11-18T19:11:50.048Z,0.60
2023-11-18T19:12:11.657Z,0.70
2023-11-18T19:12:33.892Z,0.60
2023-11-18T19:13:00.821Z,0.90
2023-11-18T19:13:23.489Z,0.70
2023-11-18T19:13:45.106Z,0.60
2023-11-18T19:14:08.398Z,0.80
2023-11-18T19:14:30.118Z,0.65
2023-11-18T19:14:51.753Z,0.70
2023-11-18T19:15:17.149Z,0.52
2023-11-18T19:15:38.816Z,0.77
2023-11-18T19:16:01.526Z,0.90
2023-11-18T19:16:23.238Z,0.80
2023-11-18T19:16:46.282Z,0.80
2023-11-18T19:17:07.938Z,0.75
2023-11-18T19:17:29.647Z,0.70
2023-11-18T19:17:51.495Z,0.70
2023-11-18T19:18:13.395Z,0.68
2023-11-18T19:18:36.023Z,0.85
2023-11-18T19:18:57.668Z,0.73
2023-11-18T19:19:19.812Z,0.60
2023-11-18T19:19:41.573Z,0.75
2023-11-18T19:20:07.100Z,1.02
2023-11-18T19:20:29.968Z,0.50
2023-11-18T19:20:51.741Z,0.77
2023-11-18T19:21:13.411Z,0.80
2023-11-18T19:21:35.108Z,0.70
2023-11-18T19:21:59.566Z,0.63
2023-11-18T19:22:21.854Z,0.60
2023-11-18T19:22:44.907Z,0.63
2023-11-18T19:23:06.610Z,0.80
2023-11-18T19:23:28.284Z,0.93
2023-11-18T19:23:49.933Z,1.00
2023-11-18T19:24:14.089Z,0.88
2023-11-18T19:24:36.920Z,0.80
2023-11-18T19:24:58.535Z,0.82
2023-11-18T19:25:20.233Z,1.13
2023-11-18T19:25:41.842Z,1.20
2023-11-18T19:26:04.738Z,0.93
2023-11-18T19:26:26.603Z,0.90
2023-11-18T19:26:48.806Z,0.80
2023-11-18T19:27:12.138Z,0.70
2023-11-18T19:27:33.919Z,0.75
2023-11-18T19:27:56.546Z,0.90
2023-11-18T19:28:18.356Z,0.90
2023-11-18T19:28:39.983Z,0.90
2023-11-18T19:29:01.662Z,0.98
2023-11-18T19:29:23.288Z,0.90
2023-11-18T19:29:46.020Z,0.75
2023-11-18T19:30:10.286Z,0.85
2023-11-18T19:30:31.993Z,0.73
2023-11-18T19:30:53.587Z,1.10
2023-11-18T19:31:15.266Z,1.00
2023-11-18T19:31:38.061Z,1.20
2023-11-18T19:32:00.982Z,0.80
2023-11-18T19:32:23.512Z,0.90
2023-11-18T19:32:45.427Z,0.63
2023-11-18T19:33:08.066Z,1.13
2023-11-18T19:33:29.715Z,1.25
2023-11-18T19:33:51.362Z,1.33
2023-11-18T19:34:13.087Z,1.10
2023-11-18T19:34:34.744Z,1.38
2023-11-18T19:34:57.349Z,0.80
2023-11-18T19:35:19.243Z,0.80
2023-11-18T19:35:40.963Z,1.00
2023-11-18T19:36:02.606Z,0.90
2023-11-18T19:36:24.214Z,0.70
2023-11-18T19:36:47.497Z,0.85
2023-11-18T19:37:11.922Z,1.35
2023-11-18T19:37:34.273Z,1.17
2023-11-18T19:37:55.979Z,0.80
2023-11-18T19:38:18.648Z,0.90
2023-11-18T19:38:40.798Z,1.20
2023-11-18T19:39:04.307Z,1.10
2023-11-18T19:39:26.075Z,0.77
2023-11-18T19:39:47.797Z,0.90
2023-11-18T19:40:12.098Z,0.90
2023-11-18T19:40:33.953Z,0.88
2023-11-18T19:40:57.118Z,0.85
2023-11-18T19:41:18.830Z,0.90
2023-11-18T19:41:41.504Z,0.75
2023-11-18T19:42:03.232Z,0.70
2023-11-18T19:42:24.886Z,0.90
2023-11-18T19:42:47.444Z,0.70
2023-11-18T19:43:10.244Z,0.73
2023-11-18T19:43:32.069Z,0.90
2023-11-18T19:43:54.227Z,0.85
2023-11-18T19:44:17.226Z,0.80
2023-11-18T19:44:40.396Z,0.77
2023-11-18T19:45:03.127Z,0.88
2023-11-18T19:45:25.057Z,0.90
2023-11-18T19:45:49.744Z,1.00
2023-11-18T19:46:11.456Z,0.82
2023-11-18T19:46:34.088Z,0.75
2023-11-18T19:46:55.692Z,0.90
2023-11-18T19:47:18.695Z,0.95
2023-11-18T19:47:40.426Z,1.10
2023-11-18T19:48:02.220Z,0.82
2023-11-18T19:48:25.670Z,0.65
2023-11-18T19:48:47.308Z,0.90
2023-11-18T19:49:11.510Z,0.75
2023-11-18T19:49:34.836Z,1.00
2023-11-18T19:49:58.573Z,1.00
2023-11-18T19:50:49.151Z,0.80
2023-11-18T19:51:11.694Z,0.90
2023-11-18T19:51:33.365Z,1.05
2023-11-18T19:51:54.946Z,1.00
2023-11-18T19:52:17.501Z,0.82
2023-11-18T19:52:39.229Z,0.85
2023-11-18T19:53:00.866Z,0.95
2023-11-18T19:53:22.603Z,0.88
2023-11-18T19:53:44.409Z,0.90
2023-11-18T19:54:07.246Z,0.80
2023-11-18T19:54:28.864Z,0.90
2023-11-18T19:54:50.718Z,1.13
2023-11-18T19:55:14.727Z,1.27
2023-11-18T19:55:37.163Z,1.00
2023-11-18T19:55:59.820Z,1.05
2023-11-18T19:56:21.459Z,1.10
2023-11-18T19:56:43.772Z,1.00
2023-11-18T19:57:05.966Z,0.75
2023-11-18T19:57:27.651Z,0.95
2023-11-18T19:57:50.316Z,0.95
2023-11-18T19:58:11.988Z,1.00
2023-11-18T19:58:33.604Z,0.80
2023-11-18T19:58:55.206Z,0.75
2023-11-18T19:59:16.872Z,0.80
2023-11-18T19:59:40.154Z,0.80
2023-11-18T20:00:01.831Z,0.80
2023-11-18T20:00:24.757Z,1.00
2023-11-18T20:00:46.607Z,1.50
2023-11-18T20:01:39.223Z,1.42
2023-11-18T20:02:01.955Z,1.13
2023-11-18T20:02:25.046Z,0.70
2023-11-18T20:02:46.829Z,0.73
2023-11-18T20:03:08.638Z,0.90
2023-11-18T20:03:30.480Z,0.70
2023-11-18T20:03:52.249Z,0.85
2023-11-18T20:04:14.991Z,0.70
2023-11-18T20:04:36.725Z,0.70
2023-11-18T20:04:59.340Z,0.70
2023-11-18T20:05:21.102Z,0.63
2023-11-18T20:05:42.775Z,0.65
2023-11-18T20:06:05.668Z,0.85
2023-11-18T20:06:27.328Z,0.77
2023-11-18T20:06:48.926Z,0.95
2023-11-18T20:07:10.728Z,1.15
2023-11-18T20:07:32.365Z,1.15
2023-11-18T20:07:55.250Z,0.90
2023-11-18T20:08:19.247Z,1.10
2023-11-18T20:08:40.949Z,0.93
2023-11-18T20:09:03.593Z,0.88
2023-11-18T20:09:26.580Z,0.90
2023-11-18T20:09:48.637Z,1.00
2023-11-18T20:10:13.452Z,1.20
2023-11-18T20:10:35.223Z,1.00
2023-11-18T20:10:56.866Z,0.85
2023-11-18T20:11:18.529Z,0.88
2023-11-18T20:11:50.095Z,0.75
2023-11-18T20:12:11.724Z,0.98
2023-11-18T20:12:33.541Z,1.08
2023-11-18T20:12:55.206Z,0.95
2023-11-18T20:13:16.913Z,0.88
2023-11-18T20:13:39.628Z,0.90
2023-11-18T20:14:01.302Z,0.70
2023-11-18T20:14:23.655Z,0.73
2023-11-18T20:14:45.341Z,0.85
2023-11-18T20:15:08.508Z,0.77
2023-11-18T20:15:30.141Z,1.20
2023-11-18T20:15:54.936Z,0.80
2023-11-18T20:16:16.624Z,0.95
2023-11-18T20:16:38.804Z,0.95
2023-11-18T20:17:00.786Z,1.02
2023-11-18T20:17:22.508Z,1.00
2023-11-18T20:17:47.714Z,1.15
2023-11-18T20:18:11.375Z,1.10
2023-11-18T20:18:33.499Z,0.98
2023-11-18T20:18:55.210Z,1.15
2023-11-18T20:19:18.028Z,1.50
2023-11-18T20:19:39.762Z,1.45
2023-11-18T20:20:01.502Z,1.05
2023-11-18T20:20:23.354Z,1.50
2023-11-18T20:20:45.981Z,1.70
2023-11-18T20:21:10.795Z,2.05
2023-11-18T20:21:32.443Z,1.65
2023-11-18T20:21:54.117Z,1.40
2023-11-18T20:22:15.766Z,1.30
2023-11-18T20:22:38.368Z,1.17
2023-11-18T20:23:01.073Z,1.08
2023-11-18T20:23:22.794Z,1.52
2023-11-18T20:23:44.432Z,1.77
2023-11-18T20:24:07.117Z,1.83
2023-11-18T20:24:29.599Z,1.40
2023-11-18T20:24:52.295Z,1.13
2023-11-18T20:25:15.540Z,1.52
2023-11-18T20:25:37.303Z,1.30
2023-11-18T20:25:58.893Z,1.20
2023-11-18T20:26:20.549Z,1.30
2023-11-18T20:26:42.606Z,1.30
2023-11-18T20:27:05.757Z,0.90
2023-11-18T20:27:27.473Z,1.05
2023-11-18T20:27:49.190Z,1.10
2023-11-18T20:28:10.792Z,1.23
2023-11-18T20:28:35.257Z,1.35
2023-11-18T20:28:58.508Z,0.95
2023-11-18T20:29:20.198Z,1.25
2023-11-18T20:29:41.926Z,1.00
2023-11-18T20:30:05.618Z,1.30
2023-11-18T20:30:28.157Z,1.10
2023-11-18T20:30:50.736Z,1.20
2023-11-18T20:31:12.509Z,1.23
2023-11-18T20:31:34.387Z,0.85
2023-11-18T20:31:56.410Z,1.08
2023-11-18T20:32:18.071Z,1.17
2023-11-18T20:32:39.803Z,1.20
2023-11-18T20:33:03.853Z,1.20
2023-11-18T20:33:25.550Z,0.77
2023-11-18T20:33:48.344Z,0.80
2023-11-18T20:34:12.364Z,0.93
2023-11-18T20:34:35.375Z,0.90
2023-11-18T20:34:56.952Z,1.13
2023-11-18T20:35:20.092Z,0.80
2023-11-18T20:35:42.091Z,0.70
2023-11-18T20:36:06.439Z,0.95
2023-11-18T20:36:28.044Z,1.20
2023-11-18T20:36:49.688Z,1.20
2023-11-18T20:37:13.406Z,1.05
2023-11-18T20:37:36.013Z,1.17
2023-11-18T20:37:57.756Z,1.60
2023-11-18T20:38:20.552Z,1.60
2023-11-18T20:38:44.050Z,1.13
2023-11-18T20:39:06.912Z,1.00
2023-11-18T20:39:29.474Z,0.90
2023-11-18T20:39:51.114Z,1.20
2023-11-18T20:40:14.599Z,1.48
2023-11-18T20:40:36.245Z,1.35
2023-11-18T20:40:58.987Z,1.63
2023-11-18T20:41:21.212Z,1.65
2023-11-18T20:41:44.277Z,1.50
2023-11-18T20:42:07.259Z,1.10
2023-11-18T20:42:28.919Z,1.48
2023-11-18T20:42:51.999Z,0.90
2023-11-18T20:43:15.382Z,0.70
2023-11-18T20:43:37.003Z,1.20
2023-11-18T20:43:58.692Z,1.20
2023-11-18T20:44:20.353Z,0.88
2023-11-18T20:44:43.083Z,1.30
2023-11-18T20:45:06.039Z,1.33
2023-11-18T20:45:27.705Z,1.35
2023-11-18T20:45:49.568Z,0.73
2023-11-18T20:46:12.592Z,0.70
2023-11-18T20:46:35.649Z,0.70
2023-11-18T20:46:57.773Z,0.80
2023-11-18T20:47:19.402Z,0.60
2023-11-18T20:47:41.458Z,0.70
2023-11-18T20:48:05.604Z,0.60
2023-11-18T20:48:28.389Z,0.63
2023-11-18T20:48:50.296Z,0.70
2023-11-18T20:49:12.602Z,0.60
2023-11-18T20:49:34.228Z,0.70
2023-11-18T20:49:55.856Z,0.63
2023-11-18T20:50:17.482Z,0.73
2023-11-18T20:50:39.619Z,0.70
2023-11-18T20:51:02.953Z,0.80
2023-11-18T20:51:24.588Z,0.65
2023-11-18T20:51:46.357Z,0.77
2023-11-18T20:52:10.552Z,0.80
2023-11-18T20:52:34.034Z,0.98
2023-11-18T20:52:57.149Z,0.90
2023-11-18T20:53:19.038Z,1.10
2023-11-18T20:53:40.800Z,1.02
2023-11-18T20:54:05.295Z,0.90
2023-11-18T20:54:26.911Z,0.80
2023-11-18T20:54:48.569Z,1.00
2023-11-18T20:55:10.778Z,0.68
2023-11-18T20:55:33.422Z,0.93
2023-11-18T20:55:55.072Z,1.20
2023-11-18T20:56:17.857Z,1.52
2023-11-18T20:56:39.497Z,1.38
2023-11-18T20:57:01.353Z,1.83
2023-11-18T20:57:23.914Z,1.48
2023-11-18T20:57:45.548Z,1.50
2023-11-18T20:58:08.061Z,1.50
2023-11-18T20:58:29.869Z,1.17
2023-11-18T20:58:52.351Z,1.20
2023-11-18T20:59:14.998Z,1.00
2023-11-18T20:59:36.613Z,0.88
2023-11-18T20:59:58.301Z,0.90
2023-11-18T21:00:21.007Z,0.80
2023-11-18T21:00:42.674Z,1.00
2023-11-18T21:01:11.243Z,0.93
2023-11-18T21:01:34.185Z,0.68
2023-11-18T21:01:55.783Z,0.60
2023-11-18T21:02:17.583Z,0.63
2023-11-18T21:02:39.442Z,0.70
2023-11-18T21:03:02.988Z,0.60
2023-11-18T21:03:26.325Z,0.70
2023-11-18T21:03:48.263Z,0.60
2023-11-18T21:04:10.193Z,0.60
2023-11-18T21:04:32.669Z,0.57
2023-11-18T21:04:54.574Z,0.63
2023-11-18T21:05:18.680Z,0.77
2023-11-18T21:05:40.653Z,0.80
2023-11-18T21:06:03.648Z,0.60